Time;durP1;ratioP1;P1;durP2;ratioP2;P2;SDS_P1;SDS_P2;PMS_P1;PMS_P2;Temp;Humidity;BMP_temperature;BMP_pressure;BME280_temperature;BME280_humidity;BME280_pressure;Samples;Min_cycle;Max_cycle;Signal;HPM_P1;HPM_P2
2022/11/29 00:01:26;;;;;;;10.98;7.78;;;11.90;83.20;;;;;;4945633;29;20619;-83
2022/11/29 00:03:52;;;;;;;10.93;7.43;;;11.90;83.20;;;;;;4945730;29;20059;-84
2022/11/29 00:06:26;;;;;;;10.70;7.43;;;11.90;83.20;;;;;;4961715;29;20039;-84
2022/11/29 00:08:52;;;;;;;9.70;7.05;;;11.90;83.20;;;;;;4945297;29;20483;-84
2022/11/29 00:14:08;;;;;;;10.57;7.13;;;11.90;83.20;;;;;;4966405;29;20038;-84
2022/11/29 00:16:34;;;;;;;9.93;7.05;;;11.90;83.20;;;;;;4945692;29;20027;-83
2022/11/29 00:19:01;;;;;;;10.93;7.50;;;11.90;83.20;;;;;;4945971;29;20491;-84
2022/11/29 00:21:27;;;;;;;10.90;7.35;;;11.90;83.20;;;;;;4960566;29;20031;-84
2022/11/29 00:23:54;;;;;;;10.07;7.50;;;11.90;83.20;;;;;;4963233;29;20028;-85
2022/11/29 00:26:20;;;;;;;10.50;7.50;;;11.90;83.10;;;;;;4944672;29;20031;-84
2022/11/29 00:28:46;;;;;;;10.73;7.53;;;11.90;83.20;;;;;;4946957;29;20024;-84
2022/11/29 00:31:17;;;;;;;10.40;7.07;;;11.90;83.10;;;;;;4928992;29;20062;-84
2022/11/29 00:33:43;;;;;;;9.68;6.75;;;12.00;83.10;;;;;;4959848;29;20023;-85
2022/11/29 00:36:09;;;;;;;10.05;7.15;;;12.00;83.00;;;;;;4944998;29;20031;-84
2022/11/29 00:38:34;;;;;;;9.63;6.65;;;12.00;83.00;;;;;;4945153;29;20395;-84
2022/11/29 00:41:00;;;;;;;10.05;7.35;;;12.00;82.90;;;;;;4943191;29;20110;-84
2022/11/29 00:43:31;;;;;;;10.15;7.32;;;12.00;82.80;;;;;;4949702;29;20036;-83
2022/11/29 00:45:58;;;;;;;9.55;7.22;;;12.00;82.70;;;;;;4967059;29;20035;-85
2022/11/29 00:48:47;;;;;;;9.93;7.07;;;12.10;82.70;;;;;;4972923;28;20567;-85
2022/11/29 00:51:13;;;;;;;10.13;7.20;;;12.00;82.60;;;;;;4952273;29;20092;-84
2022/11/29 00:53:40;;;;;;;10.23;7.28;;;12.00;82.60;;;;;;4960184;28;20267;-83
2022/11/29 00:56:08;;;;;;;11.10;7.70;;;12.00;82.70;;;;;;4951294;29;20031;-84
2022/11/29 00:58:35;;;;;;;10.77;7.45;;;12.00;82.80;;;;;;4948161;29;20031;-84
2022/11/29 01:01:04;;;;;;;10.73;7.65;;;12.00;82.90;;;;;;4933539;29;20054;-84
2022/11/29 01:03:30;;;;;;;10.57;7.78;;;12.00;83.00;;;;;;4965480;29;20031;-84
2022/11/29 01:06:01;;;;;;;9.90;7.22;;;12.00;83.00;;;;;;4963188;29;20085;-84
2022/11/29 01:08:28;;;;;;;10.05;6.65;;;11.90;83.50;;;;;;4945961;29;20031;-84
2022/11/29 01:11:10;;;;;;;11.82;7.97;;;11.90;83.50;;;;;;4944636;29;20034;-84
2022/11/29 01:13:36;;;;;;;10.90;7.53;;;11.90;83.00;;;;;;4961619;29;20059;-84
2022/11/29 01:16:02;;;;;;;9.60;6.82;;;11.90;83.10;;;;;;4955532;29;20027;-84
2022/11/29 01:18:29;;;;;;;10.82;7.28;;;11.90;83.10;;;;;;4944377;29;20110;-83
2022/11/29 01:21:07;;;;;;;11.10;7.28;;;11.90;83.20;;;;;;4923755;29;20020;-84
2022/11/29 01:23:33;;;;;;;12.32;7.68;;;11.90;83.20;;;;;;4940432;29;20107;-84
2022/11/29 01:26:05;;;;;;;10.23;7.45;;;11.90;83.20;;;;;;4939577;29;20519;-85
2022/11/29 01:28:30;;;;;;;10.35;7.60;;;11.90;83.20;;;;;;4941423;29;20507;-85
2022/11/29 01:31:01;;;;;;;10.93;7.30;;;11.90;83.20;;;;;;4940721;29;20062;-84
2022/11/29 01:33:28;;;;;;;9.82;7.20;;;11.90;83.20;;;;;;4947491;29;20515;-84
2022/11/29 01:35:54;;;;;;;10.88;7.75;;;11.90;83.30;;;;;;4941885;29;20035;-82
2022/11/29 01:41:26;;;;;;;9.93;7.25;;;11.90;83.30;;;;;;4948192;29;20038;-84
2022/11/29 01:44:04;;;;;;;11.35;7.88;;;11.90;83.30;;;;;;4943537;29;20036;-84
2022/11/29 01:49:51;;;;;;;10.02;7.22;;;11.90;83.30;;;;;;4951623;29;20101;-82
2022/11/29 01:52:28;;;;;;;11.07;7.88;;;12.00;83.40;;;;;;4950093;29;20028;-86
2022/11/29 01:54:58;;;;;;;10.18;7.15;;;11.90;83.30;;;;;;4945893;29;20055;-84
2022/11/29 01:57:24;;;;;;;10.57;7.63;;;11.90;83.30;;;;;;4945490;29;20248;-84
2022/11/29 01:59:56;;;;;;;9.60;7.50;;;11.90;83.30;;;;;;4943594;29;20054;-84
2022/11/29 02:02:34;;;;;;;10.10;7.45;;;11.90;83.30;;;;;;4931644;29;20036;-83
2022/11/29 02:05:01;;;;;;;10.07;7.20;;;12.00;83.30;;;;;;4930245;29;20076;-84
2022/11/29 02:07:26;;;;;;;11.13;7.63;;;11.90;83.30;;;;;;4947289;29;20030;-85
2022/11/29 02:09:55;;;;;;;10.50;7.88;;;11.90;83.30;;;;;;4944393;29;20023;-83
2022/11/29 02:12:30;;;;;;;11.20;7.32;;;11.90;83.30;;;;;;4945795;29;20051;-83
2022/11/29 02:15:22;;;;;;;9.95;7.05;;;11.90;83.30;;;;;;4929464;29;20079;-84
2022/11/29 02:17:47;;;;;;;11.13;7.63;;;11.90;83.30;;;;;;4929330;29;20496;-84
2022/11/29 02:20:42;;;;;;;9.77;7.35;;;11.90;83.30;;;;;;4945828;29;20023;-84
2022/11/29 02:23:30;;;;;;;10.05;7.13;;;11.90;83.30;;;;;;4949237;29;20063;-84
2022/11/29 02:33:13;;;;;;;10.50;6.90;;;11.90;83.20;;;;;;4958252;28;20570;-84
2022/11/29 02:35:41;;;;;;;9.70;7.15;;;12.00;83.30;;;;;;4955685;29;20032;-84
2022/11/29 02:42:17;;;;;;;10.25;6.82;;;12.00;83.00;;;;;;4957532;29;20055;-83
2022/11/29 02:48:44;;;;;;;9.20;6.70;;;12.00;82.80;;;;;;4971882;28;20055;-83
2022/11/29 02:54:55;;;;;;;10.52;7.25;;;12.00;82.70;;;;;;4964540;28;20049;-83
2022/11/29 03:00:24;;;;;;;9.10;6.72;;;12.00;82.90;;;;;;4974301;28;20278;-86
2022/11/29 03:02:50;;;;;;;10.52;7.13;;;11.90;83.00;;;;;;4950729;29;20031;-85
2022/11/29 03:05:40;;;;;;;9.80;6.95;;;11.90;83.10;;;;;;4938684;29;20484;-83
2022/11/29 03:08:32;;;;;;;10.10;7.18;;;12.00;83.20;;;;;;4933973;29;20044;-84
2022/11/29 03:11:37;;;;;;;9.82;6.65;;;11.90;83.10;;;;;;4947690;29;20043;-84
2022/11/29 03:14:20;;;;;;;9.73;7.15;;;12.00;83.20;;;;;;4957457;29;20095;-84
2022/11/29 03:17:08;;;;;;;10.38;7.10;;;11.90;83.20;;;;;;4952919;29;20062;-84
2022/11/29 03:26:25;;;;;;;9.73;6.55;;;11.90;83.60;;;;;;4960514;29;20503;-83
2022/11/29 03:29:17;;;;;;;10.27;7.32;;;11.90;83.40;;;;;;4953649;29;20045;-84
2022/11/29 03:32:17;;;;;;;10.55;7.47;;;11.90;83.40;;;;;;4946593;29;20040;-84
2022/11/29 03:35:25;;;;;;;9.77;6.88;;;11.90;83.90;;;;;;4959722;28;20012;-85
2022/11/29 03:58:26;;;;;;;11.15;7.13;;;11.90;83.40;;;;;;4959246;28;20396;-85
2022/11/29 04:01:23;;;;;;;10.35;7.35;;;11.90;83.50;;;;;;4953109;29;20266;-85
2022/11/29 04:04:35;;;;;;;10.45;7.22;;;11.90;83.40;;;;;;4970941;29;20027;-84
2022/11/29 04:10:42;;;;;;;10.77;7.78;;;11.90;83.40;;;;;;4976734;28;20042;-84
2022/11/29 04:23:39;;;;;;;10.32;7.10;;;11.90;83.40;;;;;;4970199;28;20034;-84
2022/11/29 04:26:37;;;;;;;10.98;7.93;;;11.90;83.40;;;;;;4971179;29;20035;-83
2022/11/29 04:32:39;;;;;;;9.77;7.10;;;11.90;83.40;;;;;;4964494;28;20070;-83
2022/11/29 04:35:13;;;;;;;10.63;7.78;;;11.90;83.30;;;;;;4941312;29;20028;-85
2022/11/29 04:41:15;;;;;;;9.82;6.88;;;12.00;83.20;;;;;;4956934;29;20082;-84
2022/11/29 04:51:00;;;;;;;10.57;6.88;;;12.00;82.80;;;;;;4965571;28;19937;-84
2022/11/29 04:54:00;;;;;;;11.00;8.05;;;12.00;82.90;;;;;;4959001;28;20025;-83
2022/11/29 05:00:19;;;;;;;11.13;7.47;;;12.00;83.10;;;;;;4958963;28;20059;-82
2022/11/29 05:06:17;;;;;;;9.82;7.13;;;11.90;83.20;;;;;;4978163;28;20113;-86
2022/11/29 05:18:50;;;;;;;10.50;7.13;;;11.90;83.30;;;;;;4977845;28;20097;-84
2022/11/29 05:21:55;;;;;;;11.25;7.22;;;11.90;83.40;;;;;;4975608;28;20037;-84
2022/11/29 05:31:57;;;;;;;10.75;7.38;;;11.80;83.40;;;;;;4967539;28;20058;-83
2022/11/29 05:55:13;;;;;;;11.57;7.90;;;11.80;83.50;;;;;;5552786;23;20065;-86
2022/11/29 06:28:40;;;;;;;11.40;8.50;;;11.90;83.50;;;;;;5011802;28;20052;-81
2022/11/29 06:32:02;;;;;;;12.90;8.52;;;11.90;83.20;;;;;;4994542;28;20037;-81
2022/11/29 06:41:38;;;;;;;12.15;7.70;;;11.90;83.10;;;;;;5221218;23;20124;-84
2022/11/29 07:48:14;;;;;;;16.50;9.30;;;11.80;83.70;;;;;;4991938;28;20053;-80
2022/11/29 07:50:40;;;;;;;17.55;10.27;;;11.80;83.70;;;;;;4980987;28;20025;-81
2022/11/29 07:54:02;;;;;;;17.27;10.27;;;11.80;83.70;;;;;;4958917;28;20529;-85
2022/11/29 08:03:34;;;;;;;15.25;9.50;;;11.80;83.80;;;;;;4975156;28;20033;-80
2022/11/29 08:06:55;;;;;;;16.58;9.88;;;11.80;83.80;;;;;;4989685;28;20034;-80
2022/11/29 08:12:55;;;;;;;15.90;9.55;;;11.80;83.80;;;;;;4963761;28;20045;-80
2022/11/29 08:15:21;;;;;;;15.23;9.38;;;11.90;83.90;;;;;;4953754;29;20114;-78
2022/11/29 08:17:47;;;;;;;14.77;9.32;;;11.90;83.80;;;;;;4953878;29;20403;-80
2022/11/29 08:20:15;;;;;;;14.70;9.07;;;11.90;83.90;;;;;;4953396;28;20030;-80
2022/11/29 08:22:40;;;;;;;14.93;8.88;;;11.80;83.80;;;;;;4953895;29;20400;-79
2022/11/29 08:25:07;;;;;;;15.77;9.43;;;11.90;83.80;;;;;;4953880;29;20030;-82
2022/11/29 08:27:34;;;;;;;16.25;9.25;;;11.80;83.80;;;;;;4955283;29;20036;-82
2022/11/29 08:40:58;;;;;;;;;;;;;;;;;;;;;
2022/11/29 08:43:45;;;;;;;11.98;8.10;;;12.10;83.40;;;;;;4934803;29;20492;-82
2022/11/29 08:57:04;;;;;;;;;;;;;;;;;;;;;
2022/11/29 08:59:53;;;;;;;13.27;8.25;;;11.90;83.40;;;;;;4954289;28;20019;-80
2022/11/29 09:17:50;;;;;;;10.43;7.38;;;11.90;83.70;;;;;;4973761;28;20034;-81
2022/11/29 09:20:16;;;;;;;11.80;7.70;;;11.90;83.70;;;;;;4972187;28;20027;-82
2022/11/29 09:22:41;;;;;;;11.50;7.80;;;11.90;83.80;;;;;;4958354;28;20026;-82
2022/11/29 09:25:07;;;;;;;10.73;7.43;;;11.90;83.80;;;;;;4956370;28;20030;-82
2022/11/29 09:27:32;;;;;;;11.68;7.90;;;11.90;83.80;;;;;;4958558;28;20039;-81
2022/11/29 09:29:58;;;;;;;13.20;8.20;;;11.90;83.80;;;;;;4959490;28;20031;-84
2022/11/29 09:32:23;;;;;;;12.25;8.18;;;11.90;83.80;;;;;;4962232;28;20030;-83
2022/11/29 09:35:18;;;;;;;11.43;7.10;;;11.90;83.80;;;;;;4961413;28;20027;-83
2022/11/29 09:37:43;;;;;;;10.38;7.07;;;11.90;83.80;;;;;;4977674;28;20027;-82
2022/11/29 09:44:19;;;;;;;11.30;7.47;;;11.90;83.80;;;;;;4949832;29;20104;-83
2022/11/29 09:53:57;;;;;;;11.55;7.75;;;11.90;83.80;;;;;;4978525;28;20099;-84
2022/11/29 09:56:29;;;;;;;10.57;7.03;;;11.90;83.70;;;;;;4954256;29;20107;-81
2022/11/29 10:05:51;;;;;;;9.88;6.95;;;11.90;83.70;;;;;;4953913;29;20062;-81
2022/11/29 10:08:57;;;;;;;11.43;7.28;;;11.90;83.70;;;;;;4930999;29;20067;-82
2022/11/29 10:11:36;;;;;;;10.18;7.35;;;11.90;83.80;;;;;;4933015;29;20031;-82
2022/11/29 10:14:19;;;;;;;10.88;7.45;;;11.90;83.70;;;;;;4947150;29;20074;-81
2022/11/29 10:16:51;;;;;;;10.90;7.00;;;11.90;83.70;;;;;;4920532;29;20028;-80
2022/11/29 10:19:56;;;;;;;10.93;7.22;;;11.90;83.70;;;;;;4938471;28;20019;-87
2022/11/29 10:22:52;;;;;;;11.57;7.30;;;11.90;83.70;;;;;;4890453;29;20036;-81
2022/11/29 10:28:36;;;;;;;10.82;7.15;;;11.90;83.60;;;;;;4906712;29;20066;-81
2022/11/29 10:31:48;;;;;;;12.50;7.35;;;11.90;83.50;;;;;;4902383;29;20122;-81
2022/11/29 12:25:22;;;;;;;9.57;6.35;;;11.90;84.00;;;;;;3236091;23;20097;-81
2022/11/29 12:27:52;;;;;;;10.38;5.95;;;11.90;84.00;;;;;;4954675;28;20059;-82
2022/11/29 12:30:20;;;;;;;9.77;6.47;;;11.90;83.90;;;;;;4962408;28;20026;-82
2022/11/29 12:33:16;;;;;;;12.15;6.68;;;11.90;83.80;;;;;;4938041;29;20024;-81
2022/11/29 12:36:08;;;;;;;8.93;6.25;;;11.90;83.70;;;;;;4954121;28;20034;-81
2022/11/29 12:38:47;;;;;;;8.85;6.00;;;12.00;83.60;;;;;;4944951;28;20029;-81
2022/11/29 12:41:25;;;;;;;8.63;5.50;;;12.00;83.40;;;;;;4954484;28;20027;-80
2022/11/29 12:43:56;;;;;;;9.88;6.47;;;12.00;83.30;;;;;;4952195;28;20054;-81
2022/11/29 12:46:24;;;;;;;10.82;6.25;;;12.00;83.30;;;;;;4977680;28;20411;-79
2022/11/29 12:49:29;;;;;;;9.30;6.38;;;12.00;83.40;;;;;;4956765;28;20122;-81
2022/11/29 12:52:21;;;;;;;10.85;6.30;;;12.00;83.40;;;;;;4975520;28;20050;-80
2022/11/29 12:55:02;;;;;;;9.40;6.35;;;12.00;83.50;;;;;;4960094;28;20061;-81
2022/11/29 12:58:02;;;;;;;9.27;5.95;;;11.90;83.60;;;;;;4956125;28;20522;-79
2022/11/29 13:00:34;;;;;;;9.05;5.85;;;12.00;83.70;;;;;;4970891;28;20399;-80
2022/11/29 13:03:32;;;;;;;9.60;6.35;;;11.90;83.70;;;;;;4966491;28;20023;-82
2022/11/29 13:06:04;;;;;;;9.30;5.95;;;11.90;83.70;;;;;;4951951;28;20482;-82
2022/11/29 13:08:48;;;;;;;9.93;6.03;;;11.90;83.80;;;;;;4936255;29;20023;-82
2022/11/29 13:11:22;;;;;;;9.95;6.32;;;11.90;83.80;;;;;;4936545;29;20051;-82
2022/11/29 13:14:31;;;;;;;10.52;7.03;;;11.90;83.90;;;;;;4938809;28;20479;-85
2022/11/29 13:17:10;;;;;;;11.27;6.15;;;11.90;83.90;;;;;;4947633;28;20133;-81
2022/11/29 13:19:53;;;;;;;8.70;5.57;;;11.90;83.90;;;;;;4950832;28;20158;-80
2022/11/29 13:22:29;;;;;;;10.70;6.47;;;11.90;84.00;;;;;;4949727;28;20403;-81
2022/11/29 13:25:13;;;;;;;9.05;6.10;;;11.90;84.00;;;;;;4935749;29;20050;-81
2022/11/29 13:27:43;;;;;;;8.60;5.93;;;11.90;84.00;;;;;;4950738;28;20034;-81
2022/11/29 13:30:13;;;;;;;9.73;6.55;;;11.90;84.00;;;;;;4953298;28;20054;-82
2022/11/29 13:32:54;;;;;;;10.40;6.05;;;11.90;84.00;;;;;;4953245;28;20023;-81
2022/11/29 13:35:38;;;;;;;11.63;6.53;;;11.90;84.50;;;;;;4953622;28;20372;-81
2022/11/29 13:55:01;;;;;;;;;;;11.90;84.20;;;;;;5914183;23;20947;-82
2022/11/29 13:57:27;;;;;;;11.00;6.05;;;11.80;84.10;;;;;;4955220;28;19914;-80
2022/11/29 13:59:53;;;;;;;10.90;6.53;;;11.90;84.20;;;;;;4953800;28;20104;-81
2022/11/29 14:02:29;;;;;;;9.70;6.15;;;11.90;84.30;;;;;;4945088;29;20035;-81
2022/11/29 14:04:54;;;;;;;9.95;6.80;;;11.90;84.30;;;;;;4944451;28;20529;-81
2022/11/29 14:07:20;;;;;;;10.02;6.38;;;11.90;84.20;;;;;;4954681;28;20034;-82
2022/11/29 14:09:57;;;;;;;9.23;5.90;;;11.90;84.20;;;;;;4975351;28;20475;-81
2022/11/29 14:12:49;;;;;;;9.90;6.00;;;11.90;84.20;;;;;;4975765;28;20030;-82
2022/11/29 14:15:17;;;;;;;10.05;6.50;;;11.90;84.20;;;;;;4958721;28;20122;-82
2022/11/29 14:17:48;;;;;;;9.35;6.32;;;11.90;84.20;;;;;;4957302;28;20035;-81
2022/11/29 14:20:23;;;;;;;9.77;6.18;;;11.90;84.20;;;;;;4957789;28;20034;-81
2022/11/29 14:23:31;;;;;;;12.25;6.68;;;11.90;84.20;;;;;;4974250;28;20150;-80
2022/11/29 14:25:56;;;;;;;9.35;6.38;;;11.90;84.10;;;;;;4963739;28;20264;-81
2022/11/29 14:28:22;;;;;;;10.95;6.28;;;11.90;84.10;;;;;;4970112;28;20031;-80
2022/11/29 14:31:00;;;;;;;9.48;6.30;;;12.00;84.10;;;;;;4944596;28;20054;-80
2022/11/29 14:33:40;;;;;;;9.52;5.93;;;12.00;83.90;;;;;;4957987;28;20089;-80
2022/11/29 14:36:28;;;;;;;9.60;6.00;;;12.00;83.80;;;;;;4956909;28;20078;-80
2022/11/29 14:39:29;;;;;;;10.63;6.32;;;12.00;83.60;;;;;;4957725;28;20448;-80
2022/11/29 14:42:17;;;;;;;9.45;5.85;;;12.00;83.50;;;;;;4948432;28;20090;-81
2022/11/29 14:44:49;;;;;;;9.35;5.93;;;12.00;83.40;;;;;;4953780;29;20035;-81
2022/11/29 14:47:25;;;;;;;10.05;6.25;;;12.00;83.40;;;;;;4953333;28;20027;-81
2022/11/29 14:49:54;;;;;;;10.30;6.50;;;12.00;83.50;;;;;;4956636;28;20067;-82
2022/11/29 14:52:27;;;;;;;8.57;5.93;;;12.00;83.60;;;;;;4944568;29;20031;-82
2022/11/29 14:55:28;;;;;;;10.00;6.70;;;12.00;83.70;;;;;;4956054;28;20411;-81
2022/11/29 14:57:59;;;;;;;10.00;6.45;;;11.90;83.80;;;;;;4974611;28;20031;-80
2022/11/29 15:00:35;;;;;;;9.18;6.25;;;12.00;84.00;;;;;;4974517;28;20308;-81
2022/11/29 15:03:15;;;;;;;9.25;6.15;;;11.90;83.90;;;;;;4972331;28;20431;-81
2022/11/29 15:06:07;;;;;;;10.50;6.55;;;11.90;84.00;;;;;;4965637;28;20106;-83
2022/11/29 15:08:58;;;;;;;9.93;6.55;;;11.90;84.10;;;;;;4956801;28;20517;-81
2022/11/29 15:11:26;;;;;;;;;;;11.90;84.10;;;;;;4955963;28;20027;-79
2022/11/29 15:14:13;;;;;;;9.95;6.32;;;11.90;84.10;;;;;;4974268;28;19952;-81
2022/11/29 15:16:51;;;;;;;11.32;6.32;;;11.90;84.20;;;;;;4973601;28;20505;-81
2022/11/29 15:19:43;;;;;;;8.73;5.95;;;11.90;84.30;;;;;;4942762;28;20039;-81
2022/11/29 15:22:25;;;;;;;9.52;6.25;;;11.90;84.20;;;;;;4969159;28;20561;-81
2022/11/29 15:25:01;;;;;;;10.18;6.22;;;11.90;84.30;;;;;;4975708;28;20027;-81
2022/11/29 15:27:27;;;;;;;10.70;5.85;;;11.90;84.30;;;;;;4958259;28;20038;-81
2022/11/29 15:29:52;;;;;;;10.02;6.40;;;11.90;84.30;;;;;;4958053;28;20027;-81
2022/11/29 15:32:24;;;;;;;11.05;6.57;;;11.90;84.30;;;;;;4958164;28;20109;-80
2022/11/29 15:34:53;;;;;;;9.82;5.95;;;11.90;84.30;;;;;;4958282;28;20034;-80
2022/11/29 15:37:30;;;;;;;9.48;6.60;;;11.90;84.30;;;;;;4958140;28;20402;-81
2022/11/29 15:40:04;;;;;;;9.10;5.88;;;11.80;84.30;;;;;;4976273;28;20034;-81
2022/11/29 15:42:48;;;;;;;9.98;6.10;;;11.90;84.30;;;;;;4975384;28;20037;-79
2022/11/29 15:45:27;;;;;;;9.98;6.10;;;11.90;84.40;;;;;;4958171;28;20113;-81
2022/11/29 15:47:53;;;;;;;10.00;5.78;;;11.90;84.30;;;;;;4971808;28;20486;-78
2022/11/29 15:50:24;;;;;;;9.57;6.30;;;11.90;84.30;;;;;;4974478;28;20506;-81
2022/11/29 15:52:51;;;;;;;8.07;5.45;;;11.90;84.30;;;;;;4957966;28;20514;-80
2022/11/29 15:55:17;;;;;;;9.43;6.13;;;11.90;84.40;;;;;;4957713;28;20042;-80
2022/11/29 15:57:48;;;;;;;10.73;5.95;;;11.90;84.40;;;;;;4957616;28;20410;-81
2022/11/29 16:00:19;;;;;;;9.38;6.30;;;11.80;84.20;;;;;;4974983;28;20030;-82
2022/11/29 16:02:52;;;;;;;8.93;5.75;;;11.90;84.30;;;;;;4957809;28;20027;-82
2022/11/29 16:05:25;;;;;;;8.98;5.88;;;11.80;84.30;;;;;;4957727;28;20042;-81
2022/11/29 16:07:54;;;;;;;11.27;6.10;;;11.90;84.30;;;;;;4975516;28;20026;-81
2022/11/29 16:10:26;;;;;;;10.07;5.75;;;11.90;84.30;;;;;;4975789;28;20562;-81
2022/11/29 16:12:56;;;;;;;10.93;5.93;;;11.80;84.30;;;;;;4974098;28;20035;-81
2022/11/29 16:15:33;;;;;;;10.80;6.00;;;11.80;84.30;;;;;;4956716;28;20050;-81
2022/11/29 16:18:22;;;;;;;10.45;6.15;;;11.90;84.40;;;;;;4974320;28;20567;-81
2022/11/29 16:21:02;;;;;;;7.97;5.35;;;11.80;84.20;;;;;;4974271;28;20045;-79
2022/11/29 16:23:41;;;;;;;10.35;6.55;;;11.90;84.30;;;;;;4956071;28;20035;-81
2022/11/29 16:26:35;;;;;;;9.40;6.07;;;11.90;84.30;;;;;;4955952;28;20030;-81
2022/11/29 16:29:01;;;;;;;9.30;5.65;;;11.90;84.30;;;;;;4954907;28;20039;-81
2022/11/29 16:31:35;;;;;;;9.85;5.50;;;11.90;84.10;;;;;;4956298;28;20106;-79
2022/11/29 16:34:12;;;;;;;9.25;5.82;;;11.90;84.00;;;;;;4958744;28;20038;-82
2022/11/29 16:36:38;;;;;;;8.57;5.80;;;12.00;84.00;;;;;;4957172;28;20066;-81
2022/11/29 16:39:03;;;;;;;9.75;5.88;;;12.00;83.90;;;;;;4957186;28;20062;-81
2022/11/29 16:45:30;;;;;;;13.68;6.10;;;12.00;83.60;;;;;;4998162;28;20045;-85
2022/11/29 16:47:59;;;;;;;11.00;6.18;;;12.00;83.70;;;;;;4974767;28;20038;-81
2022/11/29 16:50:32;;;;;;;12.82;5.80;;;12.00;83.70;;;;;;4973750;28;20025;-80
2022/11/29 16:53:34;;;;;;;11.25;6.13;;;12.00;83.80;;;;;;4956830;28;20031;-81
2022/11/29 16:55:59;;;;;;;11.02;6.20;;;12.00;83.90;;;;;;4943809;28;20414;-81
2022/11/29 16:58:25;;;;;;;12.63;6.15;;;11.90;84.00;;;;;;4956921;28;20026;-81
2022/11/29 17:00:51;;;;;;;9.55;6.03;;;11.90;84.10;;;;;;4978123;28;20061;-81
2022/11/29 17:03:18;;;;;;;10.13;6.00;;;11.90;84.20;;;;;;4956828;28;20113;-80
2022/11/29 17:05:43;;;;;;;9.23;5.75;;;11.90;84.20;;;;;;4956453;28;20023;-77
2022/11/29 17:08:09;;;;;;;12.18;6.65;;;11.90;84.20;;;;;;4956537;28;20026;-81
2022/11/29 17:10:34;;;;;;;9.77;5.68;;;11.90;84.20;;;;;;4955891;28;20026;-81
2022/11/29 17:13:03;;;;;;;10.95;5.70;;;11.90;84.30;;;;;;4973895;28;20023;-80
2022/11/29 17:15:28;;;;;;;9.10;5.78;;;11.90;84.30;;;;;;4956350;28;20023;-81
2022/11/29 17:17:54;;;;;;;10.80;6.05;;;11.90;84.40;;;;;;4956200;28;20085;-77
2022/11/29 17:20:20;;;;;;;10.90;6.50;;;11.90;84.40;;;;;;4952723;29;20644;-80
2022/11/29 17:22:53;;;;;;;8.77;5.65;;;11.90;84.50;;;;;;4946747;28;20030;-84
2022/11/29 17:25:18;;;;;;;9.23;5.93;;;11.80;84.40;;;;;;4956928;29;20042;-82
2022/11/29 17:27:44;;;;;;;9.43;5.65;;;11.90;84.50;;;;;;4937255;28;20384;-81
2022/11/29 17:30:10;;;;;;;13.65;7.07;;;11.90;84.50;;;;;;4963182;28;20499;-81
2022/11/29 17:32:37;;;;;;;11.13;5.90;;;11.90;84.50;;;;;;4949101;28;20027;-78
2022/11/29 17:35:05;;;;;;;11.00;6.38;;;11.90;84.50;;;;;;4946993;28;20105;-82
2022/11/29 17:37:32;;;;;;;10.73;5.75;;;11.90;84.50;;;;;;4956742;28;20410;-85
2022/11/29 17:39:58;;;;;;;10.98;5.63;;;11.80;85.00;;;;;;4960729;28;20111;-79
2022/11/29 17:42:23;;;;;;;10.27;5.95;;;11.80;84.50;;;;;;4936912;28;20059;-80
2022/11/29 17:44:49;;;;;;;13.85;6.63;;;11.90;84.50;;;;;;4946028;28;20023;-77
2022/11/29 17:47:14;;;;;;;10.85;5.72;;;11.80;84.50;;;;;;4944197;29;20057;-77
2022/11/29 17:49:40;;;;;;;10.85;5.50;;;11.80;84.50;;;;;;4960477;28;20022;-79
2022/11/29 17:52:06;;;;;;;9.68;5.28;;;11.80;84.50;;;;;;4949921;28;20082;-77
2022/11/29 17:54:32;;;;;;;10.95;5.65;;;11.90;84.50;;;;;;4949759;28;20518;-78
2022/11/29 17:56:59;;;;;;;12.23;5.90;;;11.90;84.50;;;;;;4947889;28;20019;-77
2022/11/29 17:59:25;;;;;;;10.20;5.53;;;11.90;84.50;;;;;;4962090;28;20027;-77
2022/11/29 18:01:50;;;;;;;11.23;6.00;;;11.90;84.50;;;;;;4949546;28;20027;-77
2022/11/29 18:04:16;;;;;;;11.32;5.72;;;11.90;84.50;;;;;;4940011;28;20106;-77
2022/11/29 18:06:42;;;;;;;8.32;4.65;;;11.90;84.50;;;;;;4943748;28;20057;-76
2022/11/29 18:09:09;;;;;;;9.90;5.80;;;11.90;84.50;;;;;;4960816;28;20173;-79
2022/11/29 18:11:35;;;;;;;10.20;5.40;;;11.90;84.50;;;;;;4955238;28;20023;-76
2022/11/29 18:14:01;;;;;;;9.90;5.78;;;11.90;84.50;;;;;;4954702;28;20030;-77
2022/11/29 18:16:32;;;;;;;9.30;5.25;;;11.90;84.50;;;;;;4954403;28;20031;-80
2022/11/29 18:19:07;;;;;;;12.25;5.95;;;11.90;85.00;;;;;;4964786;28;20166;-78
2022/11/29 18:21:34;;;;;;;9.20;5.30;;;11.90;84.40;;;;;;4954695;28;20042;-78
2022/11/29 18:24:02;;;;;;;9.43;5.60;;;11.90;84.50;;;;;;4955213;28;20027;-79
2022/11/29 18:26:28;;;;;;;9.98;5.35;;;11.90;84.40;;;;;;4955276;28;20031;-78
2022/11/29 18:28:54;;;;;;;10.65;5.47;;;11.90;84.40;;;;;;4955683;28;20031;-79
2022/11/29 18:31:21;;;;;;;10.52;5.38;;;11.90;84.30;;;;;;4955003;28;20045;-79
2022/11/29 18:33:48;;;;;;;8.90;5.35;;;11.90;84.30;;;;;;4956167;28;20459;-79
2022/11/29 18:36:38;;;;;;;10.93;7.53;;;11.90;84.10;;;;;;4955041;28;20081;-78
2022/11/29 18:39:10;;;;;;;9.20;5.20;;;11.90;84.00;;;;;;4955469;28;20026;-78
2022/11/29 18:41:36;;;;;;;9.55;5.63;;;12.00;83.90;;;;;;4954879;28;20073;-78
2022/11/29 18:44:07;;;;;;;8.73;5.20;;;12.00;83.80;;;;;;4973294;28;20023;-79
2022/11/29 18:46:35;;;;;;;9.43;6.10;;;12.00;83.80;;;;;;4958529;28;20034;-78
2022/11/29 18:49:03;;;;;;;9.70;6.28;;;12.00;83.90;;;;;;4958619;28;20039;-79
2022/11/29 18:51:30;;;;;;;9.18;5.38;;;11.90;83.90;;;;;;4975584;28;20027;-78
2022/11/29 18:53:56;;;;;;;8.35;4.93;;;12.00;84.00;;;;;;4958159;28;20022;-78
2022/11/29 18:56:24;;;;;;;9.32;5.22;;;11.90;84.10;;;;;;4958169;28;20035;-75
2022/11/29 18:58:58;;;;;;;8.35;4.68;;;11.90;84.10;;;;;;4957137;28;20027;-75
2022/11/29 19:01:26;;;;;;;8.95;5.20;;;11.90;84.20;;;;;;4956933;28;20085;-75
2022/11/29 19:03:53;;;;;;;8.07;4.93;;;11.90;84.20;;;;;;4974323;28;20454;-75
2022/11/29 19:06:21;;;;;;;7.63;4.80;;;11.90;84.30;;;;;;4974432;28;20023;-75
2022/11/29 19:08:47;;;;;;;8.63;5.60;;;11.90;84.50;;;;;;4956793;28;20031;-75
2022/11/29 19:11:18;;;;;;;8.25;5.68;;;11.90;84.40;;;;;;4956888;28;20027;-75
2022/11/29 19:13:44;;;;;;;8.68;6.57;;;11.90;84.40;;;;;;4956882;28;20023;-75
2022/11/29 19:16:14;;;;;;;11.52;10.18;;;11.90;84.50;;;;;;4957003;28;20031;-75
2022/11/29 19:18:41;;;;;;;10.88;9.23;;;11.90;84.50;;;;;;4956800;28;20030;-76
2022/11/29 19:21:15;;;;;;;10.55;7.57;;;11.90;84.50;;;;;;4957278;28;20399;-78
2022/11/29 19:23:41;;;;;;;9.32;7.10;;;11.90;84.50;;;;;;4957494;28;20425;-77
2022/11/29 19:26:10;;;;;;;8.57;7.32;;;11.90;84.60;;;;;;4957563;28;20169;-78
2022/11/29 19:28:46;;;;;;;27.70;25.85;;;11.90;84.60;;;;;;4957397;28;20026;-77
2022/11/29 19:31:13;;;;;;;8.82;7.63;;;11.80;84.50;;;;;;4957526;28;20018;-78
2022/11/29 19:33:41;;;;;;;10.80;7.32;;;11.90;84.60;;;;;;4957736;28;20034;-77
2022/11/29 19:36:12;;;;;;;9.23;7.03;;;11.90;84.60;;;;;;4957472;28;20052;-78
2022/11/29 19:38:38;;;;;;;7.75;5.90;;;11.90;84.60;;;;;;4955410;28;20510;-78
2022/11/29 19:41:18;;;;;;;11.93;10.30;;;11.90;84.50;;;;;;4951531;28;20082;-78
2022/11/29 19:43:44;;;;;;;14.55;13.23;;;11.90;84.60;;;;;;4966035;28;20459;-78
2022/11/29 19:46:19;;;;;;;8.85;7.10;;;11.90;84.60;;;;;;4943056;28;20034;-78
2022/11/29 19:48:45;;;;;;;9.93;8.93;;;11.90;84.60;;;;;;4965711;28;20031;-78
2022/11/29 19:51:12;;;;;;;9.63;7.13;;;11.90;84.60;;;;;;4940048;29;20460;-77
2022/11/29 19:53:38;;;;;;;7.32;4.28;;;11.80;84.50;;;;;;4959978;28;20050;-78
2022/11/29 19:56:10;;;;;;;8.07;4.80;;;11.80;84.50;;;;;;4939183;28;20027;-78
2022/11/29 19:58:35;;;;;;;;;;;11.90;84.60;;;;;;4964810;28;20037;-78
2022/11/29 20:01:13;;;;;;;7.63;4.05;;;11.90;84.60;;;;;;4937201;29;20005;-78
2022/11/29 20:03:40;;;;;;;7.65;4.65;;;11.80;84.60;;;;;;4937841;29;20058;-79
2022/11/29 20:06:07;;;;;;;7.70;4.40;;;11.90;84.50;;;;;;4947729;28;20054;-79
2022/11/29 20:08:33;;;;;;;8.70;4.43;;;11.90;84.50;;;;;;4946906;29;20031;-78
2022/11/29 20:11:08;;;;;;;7.10;4.18;;;11.80;84.50;;;;;;4939608;29;20050;-79
2022/11/29 20:13:34;;;;;;;6.85;4.15;;;11.90;84.50;;;;;;4938136;29;20058;-77
2022/11/29 20:16:02;;;;;;;7.10;4.30;;;11.90;84.60;;;;;;4943054;28;20026;-75
2022/11/29 20:18:34;;;;;;;6.53;3.88;;;11.90;84.50;;;;;;4942671;29;20042;-78
2022/11/29 20:21:05;;;;;;;7.18;4.30;;;11.90;84.50;;;;;;4958653;28;20053;-78
2022/11/29 20:23:32;;;;;;;7.53;4.00;;;11.90;84.50;;;;;;4955467;28;20027;-78
2022/11/29 20:25:58;;;;;;;8.10;6.57;;;11.90;84.40;;;;;;4956920;28;20050;-78
2022/11/29 20:28:24;;;;;;;10.95;9.93;;;11.90;84.30;;;;;;4956871;28;20033;-78
2022/11/29 20:30:50;;;;;;;8.35;6.45;;;11.90;84.30;;;;;;4956465;28;20446;-77
2022/11/29 20:33:21;;;;;;;7.80;4.20;;;11.90;84.10;;;;;;4944243;29;20431;-78